createdAt,value
2022-11-20T00:01:47.688Z,-4.30
2022-11-20T00:05:04.137Z,-4.32
2022-11-20T00:08:21.576Z,-4.40
2022-11-20T00:11:40.105Z,-4.48
2022-11-20T00:14:56.448Z,-4.51
2022-11-20T00:18:13.135Z,-4.56
2022-11-20T00:21:32.671Z,-4.57
2022-11-20T00:24:49.181Z,-4.57
2022-11-20T00:28:05.594Z,-4.58
2022-11-20T00:31:25.730Z,-4.64
2022-11-20T00:34:42.069Z,-4.67
2022-11-20T00:37:58.735Z,-4.64
2022-11-20T00:41:17.819Z,-4.63
2022-11-20T00:44:34.773Z,-4.64
2022-11-20T00:47:51.503Z,-4.74
2022-11-20T00:51:08.770Z,-4.75
2022-11-20T00:54:25.096Z,-4.72
2022-11-20T00:57:42.488Z,-4.70
2022-11-20T01:00:58.964Z,-4.73
2022-11-20T01:04:15.683Z,-4.79
2022-11-20T01:07:32.349Z,-4.74
2022-11-20T01:10:48.907Z,-4.59
2022-11-20T01:14:07.739Z,-4.67
2022-11-20T01:17:24.265Z,-4.72
2022-11-20T01:20:43.009Z,-4.74
2022-11-20T01:24:00.780Z,-4.79
2022-11-20T01:27:17.652Z,-4.80
2022-11-20T01:30:34.676Z,-4.73
2022-11-20T01:33:52.721Z,-4.62
2022-11-20T01:37:09.302Z,-4.60
2022-11-20T01:40:26.000Z,-4.67
2022-11-20T01:43:43.402Z,-4.65
2022-11-20T01:47:07.502Z,-4.64
2022-11-20T01:50:30.589Z,-4.71
2022-11-20T01:53:50.305Z,-4.72
2022-11-20T01:57:09.907Z,-4.77
2022-11-20T02:00:29.287Z,-4.84
2022-11-20T02:03:44.410Z,-4.84
2022-11-20T02:07:04.073Z,-4.84
2022-11-20T02:10:21.051Z,-4.83
2022-11-20T02:13:49.580Z,-4.92
2022-11-20T02:17:06.251Z,-4.95
2022-11-20T02:20:23.663Z,-5.04
2022-11-20T02:23:45.720Z,-4.99
2022-11-20T02:27:06.098Z,-5.02
2022-11-20T02:30:24.117Z,-5.11
2022-11-20T02:33:40.655Z,-5.10
2022-11-20T02:37:17.564Z,-5.17
2022-11-20T02:40:34.612Z,-5.25
2022-11-20T02:43:51.248Z,-5.28
2022-11-20T02:47:10.234Z,-5.34
2022-11-20T02:50:27.907Z,-5.48
2022-11-20T02:53:44.325Z,-5.41
2022-11-20T02:57:01.149Z,-5.40
2022-11-20T03:00:21.870Z,-5.41
2022-11-20T03:03:39.164Z,-5.33
2022-11-20T03:06:56.867Z,-5.33
2022-11-20T03:10:15.460Z,-5.42
2022-11-20T03:13:33.738Z,-5.43
2022-11-20T03:16:50.478Z,-5.54
2022-11-20T03:20:07.748Z,-5.50
2022-11-20T03:23:24.136Z,-5.48
2022-11-20T03:26:41.421Z,-5.52
2022-11-20T03:29:58.217Z,-5.56
2022-11-20T03:33:14.793Z,-5.59
2022-11-20T03:36:32.776Z,-5.61
2022-11-20T03:39:49.477Z,-5.61
2022-11-20T03:43:06.425Z,-5.63
2022-11-20T03:46:27.855Z,-5.69
2022-11-20T03:49:45.302Z,-5.67
2022-11-20T03:53:01.817Z,-5.64
2022-11-20T03:56:20.697Z,-5.66
2022-11-20T03:59:37.717Z,-5.69
2022-11-20T04:02:55.452Z,-5.70
2022-11-20T04:06:17.625Z,-5.65
2022-11-20T04:09:35.162Z,-5.70
2022-11-20T04:12:52.576Z,-5.77
2022-11-20T04:16:10.713Z,-5.81
2022-11-20T04:19:27.722Z,-5.90
2022-11-20T04:22:44.593Z,-5.97
2022-11-20T04:26:01.340Z,-6.02
2022-11-20T04:29:21.420Z,-6.05
2022-11-20T04:32:39.043Z,-6.07
2022-11-20T04:35:57.624Z,-6.08
2022-11-20T04:39:19.111Z,-6.07
2022-11-20T04:42:36.289Z,-6.07
2022-11-20T04:45:58.433Z,-6.02
2022-11-20T04:49:15.652Z,-6.04
2022-11-20T04:52:32.599Z,-5.97
2022-11-20T04:55:49.086Z,-5.91
2022-11-20T04:59:08.351Z,-5.81
2022-11-20T05:02:24.847Z,-5.73
2022-11-20T05:05:42.102Z,-5.65
2022-11-20T05:08:58.703Z,-5.57
2022-11-20T05:12:16.982Z,-5.59
2022-11-20T05:15:33.846Z,-5.58
2022-11-20T05:18:51.367Z,-5.53
2022-11-20T05:22:07.930Z,-5.49
2022-11-20T05:25:24.681Z,-5.41
2022-11-20T05:28:42.131Z,-5.43
2022-11-20T05:31:59.116Z,-5.45
2022-11-20T05:35:18.119Z,-5.45
2022-11-20T05:38:35.406Z,-5.50
2022-11-20T05:41:54.204Z,-5.52
2022-11-20T05:45:13.542Z,-5.56
2022-11-20T05:48:29.850Z,-5.52
2022-11-20T05:51:46.170Z,-5.56
2022-11-20T05:55:02.521Z,-5.60
2022-11-20T05:58:18.898Z,-5.54
2022-11-20T06:01:37.608Z,-5.38
2022-11-20T06:04:53.878Z,-5.28
2022-11-20T06:08:11.540Z,-5.23
2022-11-20T06:11:29.269Z,-5.21
2022-11-20T06:14:46.786Z,-5.22
2022-11-20T06:18:05.931Z,-5.24
2022-11-20T06:21:27.165Z,-5.27
2022-11-20T06:24:43.657Z,-5.25
2022-11-20T06:28:00.912Z,-5.30
2022-11-20T06:31:20.211Z,-5.52
2022-11-20T06:34:36.533Z,-5.56
2022-11-20T06:37:53.356Z,-5.49
2022-11-20T06:41:09.780Z,-5.66
2022-11-20T06:44:26.684Z,-5.65
2022-11-20T06:47:43.186Z,-5.49
2022-11-20T06:50:59.580Z,-5.41
2022-11-20T06:54:16.525Z,-5.31
2022-11-20T06:57:32.970Z,-5.23
2022-11-20T07:00:49.559Z,-5.16
2022-11-20T07:04:09.225Z,-5.28
2022-11-20T07:07:26.323Z,-5.36
2022-11-20T07:10:43.241Z,-5.41
2022-11-20T07:14:00.416Z,-5.43
2022-11-20T07:17:17.475Z,-5.62
2022-11-20T07:20:33.813Z,-5.40
2022-11-20T07:23:50.467Z,-5.40
2022-11-20T07:27:07.675Z,-5.49
2022-11-20T07:30:28.647Z,-5.57
2022-11-20T07:33:50.006Z,-5.63
2022-11-20T07:37:10.363Z,-5.59
2022-11-20T07:40:26.118Z,-5.58
2022-11-20T07:43:48.417Z,-5.58
2022-11-20T07:47:06.479Z,-5.61
2022-11-20T07:50:24.883Z,-5.58
2022-11-20T07:53:50.535Z,-5.58
2022-11-20T07:57:11.281Z,-5.37
2022-11-20T08:00:29.881Z,-5.31
2022-11-20T08:03:46.914Z,-5.22
2022-11-20T08:07:06.690Z,-5.13
2022-11-20T08:10:30.418Z,-5.02
2022-11-20T08:14:05.424Z,-4.96
2022-11-20T08:17:22.441Z,-4.91
2022-11-20T08:21:12.164Z,-4.79
2022-11-20T08:24:28.883Z,-4.70
2022-11-20T08:27:45.475Z,-4.72
2022-11-20T08:31:06.265Z,-4.68
2022-11-20T08:34:37.790Z,-4.67
2022-11-20T08:38:03.154Z,-4.60
2022-11-20T08:41:34.142Z,-4.51
2022-11-20T08:44:51.005Z,-4.44
2022-11-20T08:48:15.485Z,-4.40
2022-11-20T08:51:31.951Z,-4.33
2022-11-20T08:54:48.454Z,-4.26
2022-11-20T08:58:05.971Z,-4.20
2022-11-20T09:01:28.051Z,-4.29
2022-11-20T09:04:46.512Z,-4.18
2022-11-20T09:08:05.175Z,-4.18
2022-11-20T09:11:24.201Z,-4.20
2022-11-20T09:14:41.046Z,-4.34
2022-11-20T09:18:03.508Z,-4.23
2022-11-20T09:21:26.800Z,-4.24
2022-11-20T09:24:46.749Z,-4.21
2022-11-20T09:28:08.728Z,-4.21
2022-11-20T09:31:30.585Z,-4.08
2022-11-20T09:34:46.948Z,-3.97
2022-11-20T09:38:03.276Z,-3.87
2022-11-20T09:41:42.650Z,-3.74
2022-11-20T09:45:25.837Z,-3.60
2022-11-20T09:48:58.613Z,-3.60
2022-11-20T09:52:23.561Z,-3.59
2022-11-20T09:55:40.500Z,-3.53
2022-11-20T09:59:00.688Z,-3.48
2022-11-20T10:02:30.411Z,-3.43
2022-11-20T10:05:52.147Z,-3.44
2022-11-20T10:09:23.678Z,-3.32
2022-11-20T10:12:48.690Z,-3.26
2022-11-20T10:16:14.401Z,-3.18
2022-11-20T10:19:55.875Z,-3.18
2022-11-20T10:23:33.932Z,-3.15
2022-11-20T10:26:57.414Z,-3.16
2022-11-20T10:30:20.384Z,-3.14
2022-11-20T10:34:05.037Z,-3.05
2022-11-20T10:37:05.471Z,-3.06
2022-11-20T10:40:34.205Z,-3.11
2022-11-20T10:43:50.673Z,-3.04
2022-11-20T10:47:08.366Z,-3.12
2022-11-20T10:50:28.507Z,-3.05
2022-11-20T10:54:08.382Z,-2.93
2022-11-20T10:57:34.619Z,-2.88
2022-11-20T11:00:51.369Z,-2.87
2022-11-20T11:04:08.806Z,-2.76
2022-11-20T11:07:29.534Z,-2.65
2022-11-20T11:10:52.317Z,-2.55
2022-11-20T11:14:20.324Z,-2.52
2022-11-20T11:17:40.283Z,-2.44
2022-11-20T11:21:03.687Z,-2.37
2022-11-20T11:24:46.548Z,-2.33
2022-11-20T11:28:01.053Z,-2.30
2022-11-20T11:31:20.731Z,-2.23
2022-11-20T11:34:38.298Z,-2.18
2022-11-20T11:38:00.178Z,-2.09
2022-11-20T11:41:22.102Z,-2.12
2022-11-20T11:44:55.392Z,-2.07
2022-11-20T11:48:18.223Z,-2.08
2022-11-20T11:51:42.877Z,-1.99
2022-11-20T11:55:10.199Z,-1.93
2022-11-20T11:58:35.865Z,-1.88
2022-11-20T12:02:01.529Z,-1.85
2022-11-20T12:05:30.968Z,-1.81
2022-11-20T12:08:55.195Z,-1.80
2022-11-20T12:12:15.722Z,-1.76
2022-11-20T12:15:43.193Z,-1.71
2022-11-20T12:19:01.367Z,-1.66
2022-11-20T12:22:23.944Z,-1.61
2022-11-20T12:25:43.472Z,-1.59
2022-11-20T12:29:07.572Z,-1.58
2022-11-20T12:32:47.699Z,-1.55
2022-11-20T12:36:16.260Z,-1.60
2022-11-20T12:39:53.846Z,-1.63
2022-11-20T12:43:34.416Z,-1.56
2022-11-20T12:46:54.291Z,-1.48
2022-11-20T12:50:15.385Z,-1.42
2022-11-20T12:53:39.744Z,-1.38
2022-11-20T12:57:03.998Z,-1.35
2022-11-20T13:00:24.086Z,-1.39
2022-11-20T13:03:55.458Z,-1.41
2022-11-20T13:07:18.825Z,-1.37
2022-11-20T13:10:42.154Z,-1.29
2022-11-20T13:14:17.850Z,-1.26
2022-11-20T13:17:39.963Z,-1.28
2022-11-20T13:20:56.706Z,-1.26
2022-11-20T13:24:29.452Z,-1.26
2022-11-20T13:27:54.745Z,-1.28
2022-11-20T13:31:11.252Z,-1.26
2022-11-20T13:34:34.413Z,-1.22
2022-11-20T13:37:50.555Z,-1.20
2022-11-20T13:41:11.030Z,-1.21
2022-11-20T13:44:36.120Z,-1.21
2022-11-20T13:47:58.836Z,-1.28
2022-11-20T13:51:34.395Z,-1.31
2022-11-20T13:55:14.280Z,-1.35
2022-11-20T13:58:41.017Z,-1.35
2022-11-20T14:01:58.133Z,-1.40
2022-11-20T14:05:21.271Z,-1.39
2022-11-20T14:08:44.454Z,-1.39
2022-11-20T14:12:01.465Z,-1.46
2022-11-20T14:19:35.682Z,-1.40
2022-11-20T14:22:58.790Z,-1.38
2022-11-20T14:26:18.672Z,-1.38
2022-11-20T14:29:40.405Z,-1.39
2022-11-20T14:32:58.566Z,-1.44
2022-11-20T14:36:20.118Z,-1.43
2022-11-20T14:39:41.307Z,-1.43
2022-11-20T14:42:57.665Z,-1.43
2022-11-20T14:46:17.057Z,-1.44
2022-11-20T14:49:37.200Z,-1.47
2022-11-20T14:53:02.681Z,-1.52
2022-11-20T14:56:20.274Z,-1.54
2022-11-20T14:59:39.650Z,-1.60
2022-11-20T15:02:55.180Z,-1.63
2022-11-20T15:06:13.186Z,-1.68
2022-11-20T15:09:33.710Z,-1.67
2022-11-20T15:12:58.712Z,-1.73
2022-11-20T15:16:20.613Z,-1.72
2022-11-20T15:19:37.629Z,-1.77
2022-11-20T15:22:54.133Z,-1.79
2022-11-20T15:26:18.364Z,-1.83
2022-11-20T15:29:32.505Z,-1.85
2022-11-20T15:32:49.098Z,-1.84
2022-11-20T15:36:06.397Z,-1.84
2022-11-20T15:39:23.811Z,-1.84
2022-11-20T15:42:42.287Z,-1.84
2022-11-20T15:46:03.596Z,-1.86
2022-11-20T15:49:25.418Z,-1.87
2022-11-20T15:52:42.346Z,-1.90
2022-11-20T15:55:58.793Z,-1.91
2022-11-20T15:59:16.696Z,-1.92
2022-11-20T16:02:32.959Z,-1.90
2022-11-20T16:05:49.345Z,-1.89
2022-11-20T16:09:07.221Z,-1.85
2022-11-20T16:12:33.532Z,-1.89
2022-11-20T16:15:52.963Z,-1.86
2022-11-20T16:19:20.290Z,-1.93
2022-11-20T16:22:36.944Z,-1.90
2022-11-20T16:25:53.723Z,-1.87
2022-11-20T16:29:14.858Z,-1.86
2022-11-20T16:32:36.064Z,-1.96
2022-11-20T16:35:53.089Z,-1.92
2022-11-20T16:39:11.530Z,-1.87
2022-11-20T16:42:27.897Z,-1.81
2022-11-20T16:45:49.214Z,-1.79
2022-11-20T16:49:07.930Z,-1.74
2022-11-20T16:52:24.187Z,-1.73
2022-11-20T16:55:42.541Z,-1.72
2022-11-20T16:59:00.204Z,-1.69
2022-11-20T17:02:18.468Z,-1.67
2022-11-20T17:05:37.240Z,-1.65
2022-11-20T17:08:54.046Z,-1.67
2022-11-20T17:12:10.920Z,-1.72
2022-11-20T17:15:28.173Z,-1.70
2022-11-20T17:18:46.650Z,-1.64
2022-11-20T17:22:03.084Z,-1.56
2022-11-20T17:25:19.814Z,-1.56
2022-11-20T17:28:37.012Z,-1.53
2022-11-20T17:31:55.054Z,-1.53
2022-11-20T17:35:12.258Z,-1.56
2022-11-20T17:38:32.150Z,-1.60
2022-11-20T17:41:50.756Z,-1.59
2022-11-20T17:45:07.379Z,-1.56
2022-11-20T17:48:23.746Z,-1.55
2022-11-20T17:51:42.873Z,-1.55
2022-11-20T17:54:59.908Z,-1.58
2022-11-20T17:58:16.107Z,-1.57
2022-11-20T18:01:32.819Z,-1.60
2022-11-20T18:04:49.081Z,-1.58
2022-11-20T18:08:05.562Z,-1.57
2022-11-20T18:11:25.499Z,-1.55
2022-11-20T18:15:00.924Z,-1.63
2022-11-20T18:18:17.125Z,-1.60
2022-11-20T18:21:35.754Z,-1.57
2022-11-20T18:24:52.151Z,-1.60
2022-11-20T18:28:09.507Z,-1.69
2022-11-20T18:31:26.546Z,-1.72
2022-11-20T18:34:42.951Z,-1.70
2022-11-20T18:37:59.193Z,-1.73
2022-11-20T18:41:31.225Z,-1.82
2022-11-20T18:44:56.658Z,-1.85
2022-11-20T18:48:13.647Z,-2.01
2022-11-20T18:51:29.945Z,-1.91
2022-11-20T18:54:46.562Z,-1.96
2022-11-20T18:58:03.167Z,-1.93
2022-11-20T19:01:19.544Z,-2.00
2022-11-20T19:04:37.667Z,-2.14
2022-11-20T19:07:53.857Z,-2.31
2022-11-20T19:11:18.094Z,-2.31
2022-11-20T19:14:34.470Z,-2.23
2022-11-20T19:17:50.896Z,-2.13
2022-11-20T19:21:14.506Z,-2.23
2022-11-20T19:24:31.273Z,-2.39
2022-11-20T19:27:47.812Z,-2.42
2022-11-20T19:31:05.990Z,-2.38
2022-11-20T19:34:23.031Z,-2.49
2022-11-20T19:37:44.647Z,-2.48
2022-11-20T19:41:02.761Z,-2.61
2022-11-20T19:44:21.373Z,-2.73
2022-11-20T19:50:59.952Z,-2.84
2022-11-20T19:54:15.654Z,-2.72
2022-11-20T19:57:31.656Z,-2.68
2022-11-20T20:00:47.952Z,-2.65
2022-11-20T20:04:10.709Z,-2.61
2022-11-20T20:07:27.232Z,-2.54
2022-11-20T20:10:43.628Z,-2.46
2022-11-20T20:14:00.873Z,-2.56
2022-11-20T20:17:17.086Z,-2.54
2022-11-20T20:20:33.875Z,-2.56
2022-11-20T20:23:50.735Z,-2.50
2022-11-20T20:27:11.493Z,-2.66
2022-11-20T20:30:26.089Z,-2.61
2022-11-20T20:33:47.043Z,-2.50
2022-11-20T20:37:04.793Z,-2.53
2022-11-20T20:40:24.311Z,-2.60
2022-11-20T20:43:43.148Z,-2.52
2022-11-20T20:47:01.524Z,-2.47
2022-11-20T20:50:19.902Z,-2.53
2022-11-20T20:53:38.133Z,-2.56
2022-11-20T20:56:57.979Z,-2.53
2022-11-20T21:00:17.106Z,-2.60
2022-11-20T21:03:33.371Z,-2.53
2022-11-20T21:06:49.784Z,-2.42
2022-11-20T21:10:06.041Z,-2.34
2022-11-20T21:13:22.991Z,-2.29
2022-11-20T21:16:41.801Z,-2.25
2022-11-20T21:19:59.967Z,-2.39
2022-11-20T21:23:20.910Z,-2.36
2022-11-20T21:26:38.114Z,-2.29
2022-11-20T21:29:54.473Z,-2.19
2022-11-20T21:33:11.018Z,-2.19
2022-11-20T21:36:29.660Z,-2.14
2022-11-20T21:39:48.404Z,-2.09
2022-11-20T21:43:04.745Z,-2.09
2022-11-20T21:46:23.497Z,-2.07
2022-11-20T21:49:39.869Z,-2.03
2022-11-20T21:52:55.960Z,-1.98
2022-11-20T21:56:19.981Z,-1.95
2022-11-20T21:59:32.954Z,-2.04
2022-11-20T22:02:49.598Z,-2.00
2022-11-20T22:06:07.487Z,-1.98
2022-11-20T22:09:23.699Z,-2.01
2022-11-20T22:12:40.401Z,-2.01
2022-11-20T22:16:01.096Z,-1.93
2022-11-20T22:19:15.483Z,-1.90
2022-11-20T22:22:31.947Z,-1.82
2022-11-20T22:25:48.595Z,-1.74
2022-11-20T22:29:06.455Z,-1.71
2022-11-20T22:32:22.778Z,-1.68
2022-11-20T22:35:39.760Z,-1.64
2022-11-20T22:38:56.801Z,-1.74
2022-11-20T22:42:14.011Z,-1.70
2022-11-20T22:45:30.175Z,-1.66
2022-11-20T22:48:48.027Z,-1.65
2022-11-20T22:52:04.688Z,-1.70
2022-11-20T22:55:21.252Z,-1.70
2022-11-20T22:58:39.485Z,-1.64
2022-11-20T23:01:55.608Z,-1.59
2022-11-20T23:05:13.033Z,-1.57
2022-11-20T23:08:29.077Z,-1.61
2022-11-20T23:11:46.638Z,-1.66
2022-11-20T23:15:02.802Z,-1.70
2022-11-20T23:18:19.580Z,-1.69
2022-11-20T23:21:36.813Z,-1.72
2022-11-20T23:24:53.044Z,-1.69
2022-11-20T23:28:09.255Z,-1.72
2022-11-20T23:31:26.310Z,-1.72
2022-11-20T23:34:42.473Z,-1.68
2022-11-20T23:38:01.062Z,-1.65
2022-11-20T23:41:18.512Z,-1.71
2022-11-20T23:44:35.610Z,-1.70
2022-11-20T23:47:51.819Z,-1.66
2022-11-20T23:51:08.647Z,-1.68
2022-11-20T23:54:25.191Z,-1.71
2022-11-20T23:57:41.894Z,-1.64
